Time;durP1;ratioP1;P1;durP2;ratioP2;P2;SDS_P1;SDS_P2;PMS_P1;PMS_P2;Temp;Humidity;BMP_temperature;BMP_pressure;BME280_temperature;BME280_humidity;BME280_pressure;Samples;Min_cycle;Max_cycle;Signal;HPM_P1;HPM_P2
2024/01/05 00:01:00;;;;;;;0.70;0.70;;;;;;;7.82;100.00;99054.34;5102183;28;20257;-67
2024/01/05 00:03:28;;;;;;;1.30;1.30;;;;;;;7.80;100.00;99062.06;5093213;28;20195;-67
2024/01/05 00:05:54;;;;;;;1.73;0.80;;;;;;;7.75;100.00;99065.63;5093688;28;20256;-67
2024/01/05 00:08:21;;;;;;;0.77;0.73;;;;;;;7.72;100.00;99075.91;5092634;28;20280;-68
2024/01/05 00:10:48;;;;;;;0.73;0.73;;;;;;;7.65;100.00;99071.81;5095904;28;20260;-67
2024/01/05 00:13:14;;;;;;;0.60;0.60;;;;;;;7.62;100.00;99074.44;5101719;28;20256;-67
2024/01/05 00:15:41;;;;;;;0.70;0.70;;;;;;;7.58;100.00;99083.03;5093534;28;20880;-67
2024/01/05 00:18:08;;;;;;;0.70;0.70;;;;;;;7.53;100.00;99082.31;5089266;28;20192;-67
2024/01/05 00:20:36;;;;;;;1.10;1.10;;;;;;;7.51;100.00;99091.69;5093144;28;20675;-67
2024/01/05 00:23:03;;;;;;;0.50;0.50;;;;;;;7.49;100.00;99101.09;5095766;28;20252;-69
2024/01/05 00:25:29;;;;;;;0.80;0.80;;;;;;;7.36;100.00;99095.44;5094462;28;20195;-66
2024/01/05 00:27:56;;;;;;;0.90;0.90;;;;;;;7.24;100.00;99101.63;5092614;28;20251;-67
2024/01/05 00:30:23;;;;;;;1.30;1.00;;;;;;;7.20;100.00;99101.72;5105609;28;20674;-67
2024/01/05 00:32:49;;;;;;;0.70;0.70;;;;;;;7.11;100.00;99097.66;5104855;28;20625;-67
2024/01/05 00:35:16;;;;;;;4.30;1.50;;;;;;;7.09;100.00;99094.31;5103669;28;20263;-67
2024/01/05 00:37:45;;;;;;;1.07;1.07;;;;;;;7.08;100.00;99096.88;5112908;28;20217;-67
2024/01/05 00:40:12;;;;;;;1.07;1.07;;;;;;;6.92;100.00;99086.16;5093916;28;20227;-67
2024/01/05 00:42:39;;;;;;;0.80;0.80;;;;;;;6.89;100.00;99086.22;5107474;28;20249;-68
2024/01/05 00:45:06;;;;;;;1.07;0.97;;;;;;;6.88;100.00;99076.94;5094563;28;20196;-66
2024/01/05 00:47:33;;;;;;;0.60;0.60;;;;;;;6.85;100.00;99076.97;5092908;28;20725;-67
2024/01/05 00:50:00;;;;;;;0.50;0.50;;;;;;;6.74;100.00;99082.28;5092156;28;20641;-66
2024/01/05 00:52:26;;;;;;;0.90;0.90;;;;;;;6.59;100.00;99066.47;5104992;28;20244;-67
2024/01/05 00:54:55;;;;;;;0.77;0.77;;;;;;;6.66;100.00;99068.00;5093644;28;20261;-66
2024/01/05 00:57:21;;;;;;;0.90;0.90;;;;;;;6.64;100.00;99073.16;5094920;28;20230;-67
2024/01/05 00:59:48;;;;;;;0.50;0.50;;;;;;;6.63;100.00;99073.16;5106324;28;20190;-67
2024/01/05 01:02:15;;;;;;;0.43;0.43;;;;;;;6.67;100.00;99070.53;5112628;28;20250;-67
2024/01/05 01:04:41;;;;;;;0.50;0.50;;;;;;;6.60;100.00;99052.84;5112684;28;20202;-67
2024/01/05 01:07:08;;;;;;;0.50;0.50;;;;;;;6.82;100.00;99074.47;5104013;28;20199;-66
2024/01/05 01:09:35;;;;;;;0.50;0.50;;;;;;;6.91;100.00;99068.38;5095155;28;20667;-67
2024/01/05 01:12:03;;;;;;;0.60;0.60;;;;;;;7.00;100.00;99074.13;5103658;28;20203;-66
2024/01/05 01:14:30;;;;;;;0.43;0.43;;;;;;;7.12;100.00;99073.84;5098934;28;20198;-66
2024/01/05 01:16:57;;;;;;;0.70;0.70;;;;;;;7.21;100.00;99076.19;5112573;28;20244;-66
2024/01/05 01:19:23;;;;;;;0.60;0.60;;;;;;;7.17;100.00;99071.22;5111046;28;20187;-66
2024/01/05 01:21:50;;;;;;;0.63;0.63;;;;;;;7.28;100.00;99095.59;5091680;28;20208;-66
2024/01/05 01:24:17;;;;;;;0.50;0.50;;;;;;;7.30;100.00;99093.84;5096276;28;20203;-66
2024/01/05 01:26:43;;;;;;;0.63;0.63;;;;;;;7.33;100.00;99091.22;5112510;28;20633;-67
2024/01/05 01:29:11;;;;;;;0.50;0.50;;;;;;;7.37;100.00;99090.28;5094279;28;20276;-66
2024/01/05 01:31:38;;;;;;;0.63;0.63;;;;;;;7.32;100.00;99092.09;5091949;28;20663;-67
2024/01/05 01:34:05;;;;;;;0.50;0.50;;;;;;;7.34;100.00;99099.72;5091813;28;20260;-66
2024/01/05 01:36:32;;;;;;;1.00;1.00;;;;;;;7.32;100.00;99102.31;5091494;28;20257;-66
2024/01/05 01:38:58;;;;;;;0.70;0.70;;;;;;;7.32;100.00;99117.59;5104192;28;20229;-67
2024/01/05 01:41:25;;;;;;;0.80;0.80;;;;;;;7.28;100.00;99115.97;5090691;28;20211;-67
2024/01/05 01:43:52;;;;;;;0.63;0.63;;;;;;;7.30;100.00;99114.22;5091772;28;20257;-67
2024/01/05 01:46:20;;;;;;;0.80;0.80;;;;;;;7.28;100.00;99121.09;5091432;28;20256;-67
2024/01/05 01:48:47;;;;;;;0.50;0.50;;;;;;;7.31;100.00;99120.16;5103384;28;20643;-67
2024/01/05 01:51:14;;;;;;;0.47;0.47;;;;;;;7.31;100.00;99112.53;5105597;28;20620;-67
2024/01/05 01:53:41;;;;;;;0.70;0.70;;;;;;;7.32;100.00;99115.06;5099546;28;20323;-67
2024/01/05 01:56:10;;;;;;;0.73;0.73;;;;;;;7.33;100.00;99114.16;5095541;28;20630;-67
2024/01/05 01:58:38;;;;;;;0.97;0.97;;;;;;;7.23;100.00;99097.41;5105149;28;20747;-67
2024/01/05 02:01:06;;;;;;;0.93;0.93;;;;;;;7.40;100.00;99120.81;5091335;28;20639;-67
2024/01/05 02:03:35;;;;;;;0.80;0.80;;;;;;;7.32;100.00;99106.56;5095401;28;20249;-67
2024/01/05 02:06:02;;;;;;;0.60;0.60;;;;;;;7.37;100.00;99120.03;5091872;28;20659;-67
2024/01/05 02:08:29;;;;;;;0.40;0.40;;;;;;;7.34;100.00;99126.03;5096167;28;20264;-67
2024/01/05 02:10:56;;;;;;;0.60;0.60;;;;;;;7.34;100.00;99131.16;5108770;28;20199;-67
2024/01/05 02:13:23;;;;;;;0.70;0.70;;;;;;;7.34;100.00;99126.03;5092533;28;20230;-67
2024/01/05 02:15:50;;;;;;;0.70;0.70;;;;;;;7.37;100.00;99127.69;5099455;28;20587;-67
2024/01/05 02:18:16;;;;;;;1.07;1.07;;;;;;;7.22;100.00;99100.81;5103908;28;20199;-67
2024/01/05 02:20:46;;;;;;;0.50;0.50;;;;;;;7.33;100.00;99116.72;5102930;28;20629;-67
2024/01/05 02:23:21;;;;;;;0.80;0.80;;;;;;;7.28;100.00;99102.38;5095690;28;20198;-67
2024/01/05 02:25:48;;;;;;;0.60;0.60;;;;;;;7.36;100.00;99124.31;5099031;28;20198;-67
2024/01/05 02:28:15;;;;;;;0.60;0.60;;;;;;;7.30;100.00;99129.53;5099458;28;20192;-67
2024/01/05 02:30:42;;;;;;;1.90;0.93;;;;;;;7.26;100.00;99125.38;5096563;28;20746;-67
2024/01/05 02:33:08;;;;;;;0.50;0.50;;;;;;;7.24;100.00;99128.81;5101383;28;20627;-67
2024/01/05 02:35:35;;;;;;;0.73;0.73;;;;;;;7.18;100.00;99132.34;5101026;28;20272;-67
2024/01/05 02:38:02;;;;;;;0.80;0.80;;;;;;;7.11;100.00;99128.22;5110145;28;20247;-67
2024/01/05 02:40:30;;;;;;;0.80;0.80;;;;;;;7.12;100.00;99139.28;5095131;28;20218;-67
2024/01/05 02:42:56;;;;;;;0.50;0.50;;;;;;;7.11;100.00;99127.41;5108406;28;20709;-67
2024/01/05 02:45:24;;;;;;;1.30;1.20;;;;;;;7.05;100.00;99128.38;5089119;28;20199;-67
2024/01/05 02:47:50;;;;;;;0.50;0.50;;;;;;;7.05;100.00;99123.25;5099055;28;20688;-67
2024/01/05 02:50:17;;;;;;;0.60;0.60;;;;;;;7.01;100.00;99125.94;5090158;28;20219;-67
2024/01/05 02:52:45;;;;;;;0.87;0.70;;;;;;;6.95;100.00;99133.69;5098714;28;20203;-67
2024/01/05 02:55:12;;;;;;;0.57;0.57;;;;;;;6.91;100.00;99125.28;5100115;28;20249;-67
2024/01/05 02:57:41;;;;;;;0.60;0.60;;;;;;;6.87;100.00;99128.75;5097917;28;20199;-66
2024/01/05 03:00:09;;;;;;;0.93;0.73;;;;;;;6.84;100.00;99127.09;5100361;28;20214;-67
2024/01/05 03:02:35;;;;;;;0.63;0.63;;;;;;;6.83;100.00;99124.56;5094435;28;20191;-66
2024/01/05 03:05:02;;;;;;;0.53;0.53;;;;;;;6.65;100.00;99109.66;5094253;28;20679;-66
2024/01/05 03:07:29;;;;;;;0.50;0.50;;;;;;;6.74;100.00;99133.25;5097842;28;20195;-66
2024/01/05 03:09:56;;;;;;;0.83;0.83;;;;;;;6.61;100.00;99108.88;5102041;28;20214;-67
2024/01/05 03:12:23;;;;;;;0.47;0.47;;;;;;;6.62;100.00;99122.44;5100927;28;20290;-67
2024/01/05 03:14:51;;;;;;;0.57;0.57;;;;;;;6.63;100.00;99132.59;5098896;28;20732;-67
2024/01/05 03:17:17;;;;;;;0.50;0.50;;;;;;;6.69;100.00;99144.34;5090390;28;20205;-67
2024/01/05 03:19:44;;;;;;;0.50;0.50;;;;;;;6.64;100.00;99146.16;5102204;28;20198;-67
2024/01/05 03:22:11;;;;;;;0.50;0.50;;;;;;;6.61;100.00;99151.31;5094800;28;20686;-66
2024/01/05 03:24:38;;;;;;;0.67;0.67;;;;;;;6.57;100.00;99154.78;5090979;28;20202;-66
2024/01/05 03:27:05;;;;;;;0.50;0.50;;;;;;;6.55;100.00;99147.19;5094549;28;20195;-67
2024/01/05 03:29:32;;;;;;;0.60;0.60;;;;;;;6.56;100.00;99153.13;5089748;28;20207;-66
2024/01/05 03:32:00;;;;;;;0.70;0.70;;;;;;;6.55;100.00;99166.72;5095431;28;20202;-67
2024/01/05 03:34:28;;;;;;;0.50;0.50;;;;;;;6.49;100.00;99171.91;5102095;28;20191;-66
2024/01/05 03:36:55;;;;;;;0.63;0.63;;;;;;;6.45;100.00;99165.19;5104130;28;20203;-66
2024/01/05 03:39:21;;;;;;;0.70;0.70;;;;;;;6.49;100.00;99177.00;5090033;28;20255;-67
2024/01/05 03:41:48;;;;;;;0.57;0.57;;;;;;;6.49;100.00;99184.66;5089982;28;20208;-66
2024/01/05 03:44:20;;;;;;;0.73;0.73;;;;;;;6.39;100.00;99171.22;5089788;28;20260;-67
2024/01/05 03:46:47;;;;;;;0.60;0.60;;;;;;;6.44;100.00;99197.44;5109364;28;20594;-66
2024/01/05 03:49:15;;;;;;;0.80;0.80;;;;;;;6.40;100.00;99207.72;5091441;28;20195;-67
2024/01/05 03:51:42;;;;;;;0.60;0.60;;;;;;;6.36;100.00;99201.84;5098401;28;20248;-67
2024/01/05 03:54:08;;;;;;;0.80;0.80;;;;;;;6.36;100.00;99209.47;5089930;28;20252;-67
2024/01/05 03:56:39;;;;;;;0.60;0.60;;;;;;;6.32;100.00;99211.22;5089938;28;20222;-66
2024/01/05 03:59:06;;;;;;;0.57;0.57;;;;;;;6.34;100.00;99213.72;5091998;28;20211;-67
2024/01/05 04:01:33;;;;;;;0.67;0.67;;;;;;;6.35;100.00;99217.97;5098913;28;20259;-66
2024/01/05 04:04:00;;;;;;;0.50;0.50;;;;;;;6.38;100.00;99219.63;5110737;28;20202;-66
2024/01/05 04:06:28;;;;;;;0.40;0.40;;;;;;;6.28;100.00;99204.50;5108372;28;20203;-66
2024/01/05 04:08:54;;;;;;;0.60;0.60;;;;;;;6.44;100.00;99224.59;5094301;28;20191;-67
2024/01/05 04:11:22;;;;;;;0.50;0.50;;;;;;;6.34;100.00;99208.63;5100084;28;20211;-66
2024/01/05 04:13:48;;;;;;;0.60;0.60;;;;;;;6.36;100.00;99206.09;5096784;28;20256;-67
2024/01/05 04:16:15;;;;;;;0.57;0.57;;;;;;;6.52;100.00;99231.28;5102907;28;20206;-66
2024/01/05 04:18:42;;;;;;;0.77;0.77;;;;;;;6.51;100.00;99231.28;5092644;28;20645;-66
2024/01/05 04:21:09;;;;;;;0.60;0.60;;;;;;;6.59;100.00;99230.28;5110160;28;20198;-66
2024/01/05 04:23:37;;;;;;;0.60;0.60;;;;;;;6.69;100.00;99251.34;5106720;28;20195;-67
2024/01/05 04:26:04;;;;;;;0.50;0.50;;;;;;;6.85;100.00;99250.22;5112250;28;20195;-66
2024/01/05 04:28:31;;;;;;;0.67;0.67;;;;;;;6.95;100.00;99269.56;5094173;28;20264;-67
2024/01/05 04:30:58;;;;;;;0.80;0.80;;;;;;;6.90;100.00;99257.78;5093111;28;20260;-67
2024/01/05 04:33:25;;;;;;;0.40;0.40;;;;;;;6.88;100.00;99275.66;5092678;28;20245;-66
2024/01/05 04:35:52;;;;;;;0.70;0.70;;;;;;;6.78;100.00;99272.44;5092971;28;20245;-66
2024/01/05 04:38:18;;;;;;;0.97;0.70;;;;;;;6.85;100.00;99288.44;5091870;28;20196;-67
2024/01/05 04:40:46;;;;;;;4.13;0.87;;;;;;;6.81;100.00;99291.91;5092596;28;20227;-67
2024/01/05 04:43:13;;;;;;;0.60;0.60;;;;;;;6.75;100.00;99294.56;5109199;28;20199;-66
2024/01/05 04:45:40;;;;;;;0.60;0.60;;;;;;;6.71;100.00;99295.47;5104434;28;20253;-66
2024/01/05 04:48:07;;;;;;;0.63;0.63;;;;;;;6.66;100.00;99294.69;5092418;28;20670;-67
2024/01/05 04:50:34;;;;;;;0.60;0.60;;;;;;;6.50;100.00;99294.09;5091913;28;20301;-66
2024/01/05 04:53:01;;;;;;;0.43;0.43;;;;;;;6.49;100.00;99301.78;5092694;28;20200;-66
2024/01/05 04:55:27;;;;;;;2.20;0.87;;;;;;;6.47;100.00;99311.13;5101179;28;20248;-66
2024/01/05 04:57:56;;;;;;;0.60;0.60;;;;;;;6.46;100.00;99301.81;5097559;28;20663;-66
2024/01/05 05:00:23;;;;;;;0.60;0.60;;;;;;;6.47;100.00;99300.94;5093554;28;20234;-67
2024/01/05 05:02:50;;;;;;;0.70;0.70;;;;;;;6.42;100.00;99305.28;5091735;28;20199;-66
2024/01/05 05:05:17;;;;;;;0.60;0.60;;;;;;;6.39;100.00;99305.31;5091562;28;20678;-67
2024/01/05 05:07:44;;;;;;;5.80;0.80;;;;;;;6.32;100.00;99302.03;5094398;28;20206;-67
2024/01/05 05:10:11;;;;;;;0.60;0.60;;;;;;;6.19;100.00;99286.09;5091200;28;20215;-66
2024/01/05 05:12:38;;;;;;;1.60;0.80;;;;;;;6.25;100.00;99302.97;5090187;28;20195;-66
2024/01/05 05:15:08;;;;;;;1.27;1.27;;;;;;;6.25;100.00;99314.00;5094457;28;20191;-67
2024/01/05 05:17:39;;;;;;;0.73;0.73;;;;;;;6.25;100.00;99315.69;5087999;28;20200;-66
2024/01/05 05:20:06;;;;;;;1.20;1.20;;;;;;;6.24;100.00;99319.94;5089598;28;20246;-66
2024/01/05 05:22:34;;;;;;;0.67;0.67;;;;;;;6.18;100.00;99309.00;5090863;28;20203;-67
2024/01/05 05:25:00;;;;;;;0.97;0.97;;;;;;;6.27;100.00;99330.09;5091145;28;20720;-66
2024/01/05 05:27:27;;;;;;;0.60;0.60;;;;;;;6.24;100.00;99324.19;5091342;28;20671;-66
2024/01/05 05:29:54;;;;;;;0.60;0.60;;;;;;;6.17;100.00;99315.78;5090969;28;20223;-67
2024/01/05 05:32:22;;;;;;;0.60;0.60;;;;;;;6.25;100.00;99325.88;5091413;28;20260;-66
2024/01/05 05:34:49;;;;;;;0.90;0.90;;;;;;;6.24;100.00;99325.03;5090882;28;20207;-67
2024/01/05 05:37:15;;;;;;;0.83;0.83;;;;;;;6.27;100.00;99336.88;5091272;28;20218;-67
2024/01/05 05:39:42;;;;;;;0.83;0.83;;;;;;;6.32;100.00;99342.75;5090587;28;20318;-66
2024/01/05 05:42:09;;;;;;;0.50;0.50;;;;;;;6.38;100.00;99349.47;5090750;28;20568;-66
2024/01/05 05:44:35;;;;;;;0.50;0.50;;;;;;;6.36;100.00;99348.66;5089064;28;20206;-67
2024/01/05 05:47:02;;;;;;;0.70;0.70;;;;;;;6.42;100.00;99356.19;5090166;28;20260;-67
2024/01/05 05:49:30;;;;;;;1.13;1.13;;;;;;;6.44;100.00;99362.09;5088250;28;20675;-67
2024/01/05 05:51:57;;;;;;;0.60;0.60;;;;;;;6.46;100.00;99370.56;5090177;28;20264;-67
2024/01/05 05:54:24;;;;;;;0.87;0.87;;;;;;;6.51;100.00;99376.44;5089154;28;20244;-66
2024/01/05 05:56:50;;;;;;;0.70;0.70;;;;;;;6.49;100.00;99386.66;5090570;28;20207;-67
2024/01/05 05:59:17;;;;;;;0.50;0.50;;;;;;;6.53;100.00;99392.50;5103622;28;20203;-67
2024/01/05 06:01:44;;;;;;;0.50;0.50;;;;;;;6.55;100.00;99393.34;5092523;28;20804;-66
2024/01/05 06:04:13;;;;;;;0.50;0.50;;;;;;;6.57;100.00;99399.25;5101810;28;20318;-67
2024/01/05 06:06:41;;;;;;;0.60;0.60;;;;;;;6.52;100.00;99406.97;5090331;28;20199;-66
2024/01/05 06:09:08;;;;;;;0.50;0.50;;;;;;;6.39;100.00;99400.38;5090095;28;20199;-67
2024/01/05 06:11:35;;;;;;;0.50;0.50;;;;;;;6.45;100.00;99409.63;5091027;27;20733;-67
2024/01/05 06:14:04;;;;;;;0.60;0.60;;;;;;;6.43;100.00;99409.63;5090559;28;20203;-66
2024/01/05 06:16:30;;;;;;;1.03;0.80;;;;;;;6.41;100.00;99413.91;5089961;28;21454;-66
2024/01/05 06:18:57;;;;;;;0.50;0.50;;;;;;;6.44;100.00;99423.22;5090344;28;20203;-67
2024/01/05 06:21:25;;;;;;;0.67;0.67;;;;;;;6.46;100.00;99421.50;5092055;28;20663;-67
2024/01/05 06:23:53;;;;;;;0.50;0.50;;;;;;;6.43;100.00;99414.72;5088458;28;20268;-67
2024/01/05 06:26:20;;;;;;;0.70;0.70;;;;;;;6.46;100.00;99413.88;5090100;28;20221;-67
2024/01/05 06:28:47;;;;;;;0.87;0.80;;;;;;;6.45;100.00;99423.19;5088550;28;20640;-67
2024/01/05 06:31:14;;;;;;;0.70;0.70;;;;;;;6.45;100.00;99424.91;5083946;28;20216;-67
2024/01/05 06:33:42;;;;;;;0.63;0.63;;;;;;;6.43;100.00;99422.34;5087887;28;20645;-67
2024/01/05 06:36:08;;;;;;;0.60;0.60;;;;;;;6.42;100.00;99424.94;5092172;28;20916;-68
2024/01/05 06:38:35;;;;;;;0.50;0.50;;;;;;;6.46;100.00;99421.50;5087879;28;20239;-67
2024/01/05 06:41:03;;;;;;;5.40;0.90;;;;;;;6.45;100.00;99424.91;5088981;28;20257;-67
2024/01/05 06:43:30;;;;;;;0.50;0.50;;;;;;;6.49;100.00;99439.28;5087045;28;20204;-67
2024/01/05 06:45:57;;;;;;;0.40;0.40;;;;;;;6.53;100.00;99438.34;5088332;28;20702;-67
2024/01/05 06:48:23;;;;;;;0.60;0.60;;;;;;;6.55;100.00;99441.75;5088765;28;20260;-67
2024/01/05 06:50:50;;;;;;;0.57;0.57;;;;;;;6.57;100.00;99440.00;5090300;28;20688;-66
2024/01/05 06:53:17;;;;;;;0.77;0.77;;;;;;;6.60;100.00;99445.06;5097691;28;20205;-66
2024/01/05 06:55:43;;;;;;;0.87;0.70;;;;;;;6.67;100.00;99436.47;5093512;28;20256;-67
2024/01/05 06:58:12;;;;;;;0.87;0.87;;;;;;;6.70;100.00;99457.66;5090754;28;20225;-67
2024/01/05 07:00:38;;;;;;;0.73;0.73;;;;;;;6.84;100.00;99449.84;5090196;28;20206;-67
2024/01/05 07:03:05;;;;;;;0.50;0.50;;;;;;;6.87;100.00;99454.88;5096742;28;20280;-67
2024/01/05 07:05:32;;;;;;;0.60;0.60;;;;;;;6.93;100.00;99459.03;5091166;28;20222;-67
2024/01/05 07:07:59;;;;;;;2.97;0.60;;;;;;;7.04;100.00;99457.19;5087131;28;20199;-67
2024/01/05 07:10:25;;;;;;;1.47;1.47;;;;;;;7.14;100.00;99451.91;5092155;28;20628;-67
2024/01/05 07:12:52;;;;;;;1.47;1.47;;;;;;;7.22;100.00;99455.19;5087589;28;20249;-68
2024/01/05 07:15:20;;;;;;;0.80;0.80;;;;;;;7.26;100.00;99449.19;5093212;28;20717;-67
2024/01/05 07:17:47;;;;;;;0.80;0.80;;;;;;;7.32;100.00;99454.19;5098383;28;20202;-68
2024/01/05 07:20:14;;;;;;;0.60;0.60;;;;;;;7.44;100.00;99452.28;5093137;28;20257;-67
2024/01/05 07:22:41;;;;;;;0.70;0.70;;;;;;;7.53;100.00;99459.81;5097779;28;20250;-67
2024/01/05 07:25:09;;;;;;;0.60;0.60;;;;;;;7.59;100.00;99467.34;5091756;28;20203;-67
2024/01/05 07:27:36;;;;;;;1.10;1.10;;;;;;;7.71;100.00;99467.13;5089533;28;20231;-68
2024/01/05 07:30:03;;;;;;;0.80;0.80;;;;;;;7.74;100.00;99467.91;5098477;28;20683;-67
2024/01/05 07:32:31;;;;;;;1.10;1.10;;;;;;;7.83;100.00;99467.75;5094978;28;20702;-68
2024/01/05 07:34:58;;;;;;;0.70;0.60;;;;;;;7.87;100.00;99471.09;5086713;28;20257;-68
2024/01/05 07:37:24;;;;;;;0.90;0.90;;;;;;;7.91;100.00;99478.66;5088714;28;20744;-68
2024/01/05 07:39:51;;;;;;;1.20;1.20;;;;;;;8.02;100.00;99475.91;5096607;28;20230;-68
2024/01/05 07:42:18;;;;;;;0.50;0.50;;;;;;;8.10;100.00;99468.09;5095169;28;20200;-67
2024/01/05 07:44:45;;;;;;;0.73;0.73;;;;;;;8.31;100.00;99478.78;5094367;28;20213;-68
2024/01/05 07:47:12;;;;;;;1.60;1.50;;;;;;;8.41;100.00;99482.81;5092985;28;20256;-67
2024/01/05 07:49:41;;;;;;;1.47;1.47;;;;;;;8.55;100.00;99479.16;5092815;28;20256;-68
2024/01/05 07:52:07;;;;;;;1.73;0.80;;;;;;;8.63;100.00;99488.31;5092614;28;20644;-68
2024/01/05 07:54:34;;;;;;;0.70;0.70;;;;;;;8.75;100.00;99487.25;5094947;28;20204;-67
2024/01/05 07:57:01;;;;;;;0.60;0.60;;;;;;;8.84;100.00;99490.44;5094667;28;20207;-67
2024/01/05 07:59:27;;;;;;;0.50;0.50;;;;;;;9.03;100.00;99483.19;5092622;28;20203;-68
2024/01/05 08:01:54;;;;;;;0.70;0.70;;;;;;;9.14;100.00;99481.25;5094217;28;20195;-67
2024/01/05 08:04:21;;;;;;;0.50;0.50;;;;;;;9.41;100.00;99480.59;5095509;28;20656;-67
2024/01/05 08:06:50;;;;;;;0.50;0.50;;;;;;;9.59;100.00;99483.59;5091385;28;20195;-67
2024/01/05 08:09:18;;;;;;;0.40;0.40;;;;;;;9.79;100.00;99489.06;5092044;28;20302;-68
2024/01/05 08:11:44;;;;;;;0.40;0.40;;;;;;;9.92;100.00;99498.91;5091934;28;20223;-68
2024/01/05 08:14:11;;;;;;;3.83;0.60;;;;;;;10.12;100.00;99500.97;5097699;28;20203;-67
2024/01/05 08:16:38;;;;;;;0.90;0.90;;;;;;;10.20;100.00;99498.22;5094138;28;20264;-67
2024/01/05 08:19:04;;;;;;;0.60;0.60;;;;;;;10.30;100.00;99510.75;5098583;28;20207;-67
2024/01/05 08:21:31;;;;;;;0.60;0.60;;;;;;;10.36;100.00;99505.47;5095916;28;20208;-67
2024/01/05 08:23:59;;;;;;;0.50;0.50;;;;;;;10.41;99.60;99493.34;5094315;28;20252;-68
2024/01/05 08:26:26;;;;;;;0.63;0.63;;;;;;;10.61;99.29;99510.72;5093409;28;20204;-66
2024/01/05 08:28:52;;;;;;;0.60;0.60;;;;;;;10.79;97.46;99509.38;5094477;28;20203;-67
2024/01/05 08:31:19;;;;;;;0.83;0.83;;;;;;;10.99;95.77;99519.84;5092873;28;20214;-67
2024/01/05 08:33:46;;;;;;;0.67;0.60;;;;;;;11.06;94.54;99517.06;5099186;28;20291;-67
2024/01/05 08:36:13;;;;;;;0.40;0.40;;;;;;;11.24;93.63;99513.13;5095447;28;20586;-67
2024/01/05 08:38:40;;;;;;;0.50;0.50;;;;;;;11.38;93.00;99510.09;5097100;28;20215;-67
2024/01/05 08:41:08;;;;;;;0.70;0.70;;;;;;;11.51;94.18;99519.09;5094282;28;20204;-67
2024/01/05 08:43:34;;;;;;;0.50;0.50;;;;;;;11.69;92.31;99513.38;5099545;28;20256;-68
2024/01/05 08:46:02;;;;;;;0.60;0.60;;;;;;;11.78;93.55;99515.66;5093534;28;20269;-67
2024/01/05 08:48:28;;;;;;;1.80;1.37;;;;;;;11.98;91.06;99509.88;5092892;28;20698;-68
2024/01/05 08:50:55;;;;;;;0.60;0.60;;;;;;;12.07;90.86;99512.97;5092259;28;20335;-67
2024/01/05 08:53:22;;;;;;;0.70;0.70;;;;;;;12.16;89.91;99516.09;5092135;28;20203;-67
2024/01/05 08:55:48;;;;;;;0.50;0.50;;;;;;;12.18;88.22;99515.13;5091084;28;20203;-67
2024/01/05 08:58:19;;;;;;;0.40;0.40;;;;;;;12.27;87.90;99524.28;5097763;28;20272;-67
2024/01/05 09:00:45;;;;;;;0.60;0.60;;;;;;;12.36;88.57;99524.78;5096054;28;20201;-67
2024/01/05 09:03:12;;;;;;;2.53;0.60;;;;;;;12.49;89.19;99520.91;5102938;28;20255;-67
2024/01/05 09:05:39;;;;;;;0.77;0.77;;;;;;;12.60;88.98;99513.63;5092382;28;20203;-67
2024/01/05 09:08:06;;;;;;;1.00;1.00;;;;;;;12.64;89.06;99515.19;5097864;28;20256;-68
2024/01/05 09:10:33;;;;;;;0.80;0.80;;;;;;;12.78;86.90;99516.41;5092371;28;20722;-67
2024/01/05 09:13:00;;;;;;;0.70;0.70;;;;;;;12.88;85.36;99512.59;5094467;28;21027;-68
2024/01/05 09:15:28;;;;;;;1.80;0.60;;;;;;;12.89;84.40;99512.53;5101370;28;20233;-68
2024/01/05 09:17:55;;;;;;;0.70;0.70;;;;;;;13.00;82.92;99523.28;5092631;28;20211;-67
2024/01/05 09:20:21;;;;;;;0.50;0.50;;;;;;;13.14;82.71;99515.91;5100553;28;20207;-68
2024/01/05 09:22:48;;;;;;;0.50;0.50;;;;;;;13.26;83.24;99514.56;5099366;28;20199;-67
2024/01/05 09:25:15;;;;;;;0.47;0.47;;;;;;;13.27;80.28;99516.25;5097823;28;20200;-67
2024/01/05 09:27:41;;;;;;;0.50;0.50;;;;;;;13.33;79.54;99520.31;5106035;28;20644;-67
2024/01/05 09:30:09;;;;;;;0.60;0.60;;;;;;;13.38;80.46;99518.38;5096750;28;20211;-67
2024/01/05 09:32:37;;;;;;;0.43;0.43;;;;;;;13.41;77.82;99511.38;5089819;28;20272;-66
2024/01/05 09:35:04;;;;;;;0.50;0.50;;;;;;;13.51;77.93;99512.69;5087371;28;20262;-67
2024/01/05 09:37:31;;;;;;;0.60;0.60;;;;;;;13.64;78.29;99507.88;5092390;28;20208;-68
2024/01/05 09:39:57;;;;;;;0.50;0.50;;;;;;;13.71;76.53;99511.03;5089506;28;20234;-68
2024/01/05 09:42:26;;;;;;;0.50;0.50;;;;;;;13.74;75.43;99505.75;5097188;28;20198;-68
2024/01/05 09:44:53;;;;;;;1.13;1.00;;;;;;;13.81;73.44;99507.19;5093578;28;20195;-68
2024/01/05 09:47:20;;;;;;;0.50;0.50;;;;;;;13.88;70.07;99498.31;5096558;28;20202;-68
2024/01/05 09:49:50;;;;;;;0.43;0.43;;;;;;;13.88;70.51;99493.16;5095614;28;20235;-67
2024/01/05 09:52:19;;;;;;;0.40;0.40;;;;;;;13.85;71.63;99477.81;5090477;28;20223;-67
2024/01/05 09:54:47;;;;;;;2.17;2.00;;;;;;;13.97;72.89;99490.19;5096756;28;20206;-67
2024/01/05 09:57:17;;;;;;;0.60;0.60;;;;;;;14.03;71.44;99484.75;5090850;28;20239;-67
2024/01/05 09:59:45;;;;;;;0.60;0.60;;;;;;;14.13;74.31;99483.47;5093580;28;20228;-68
2024/01/05 10:02:19;;;;;;;0.70;0.70;;;;;;;14.18;72.52;99471.25;5090252;28;20683;-68
2024/01/05 10:04:45;;;;;;;0.77;0.70;;;;;;;14.19;73.60;99467.72;5097224;28;20203;-68
2024/01/05 10:07:15;;;;;;;0.70;0.70;;;;;;;14.22;70.62;99466.78;5097581;28;20667;-68
2024/01/05 10:09:51;;;;;;;0.70;0.70;;;;;;;14.21;73.74;99447.91;5091993;28;20738;-69
2024/01/05 10:12:18;;;;;;;1.77;1.67;;;;;;;14.28;75.01;99436.38;5091374;28;20214;-69
2024/01/05 10:14:46;;;;;;;4.47;1.30;;;;;;;14.45;73.60;99446.81;5090031;28;20253;-67
2024/01/05 10:17:13;;;;;;;8.63;3.53;;;;;;;14.47;74.77;99442.44;5097362;28;20251;-67
2024/01/05 10:19:41;;;;;;;2.92;2.03;;;;;;;14.60;72.08;99438.38;5098356;28;20483;-65
2024/01/05 10:22:13;;;;;;;7.13;3.00;;;;;;;14.56;72.70;99429.13;5102514;28;20559;-64
2024/01/05 10:24:40;;;;;;;1.93;1.80;;;;;;;14.67;71.36;99432.03;5106906;28;20199;-65
2024/01/05 10:27:09;;;;;;;1.57;1.47;;;;;;;14.65;70.54;99415.78;5097263;28;20662;-64
2024/01/05 10:29:37;;;;;;;1.23;1.17;;;;;;;14.76;69.78;99417.03;5104759;28;20191;-65
2024/01/05 10:32:11;;;;;;;1.27;1.20;;;;;;;14.79;70.22;99415.16;5102909;28;20246;-65
2024/01/05 10:34:38;;;;;;;1.73;1.63;;;;;;;14.75;69.50;99411.03;5099863;28;20611;-64
2024/01/05 10:37:05;;;;;;;2.60;2.03;;;;;;;14.66;72.87;99380.50;5102310;28;20256;-64
2024/01/05 10:39:33;;;;;;;0.80;0.80;;;;;;;14.77;73.37;99408.38;5103895;28;20261;-64
2024/01/05 10:42:17;;;;;;;0.80;0.80;;;;;;;14.76;74.79;99404.13;5106764;28;20195;-64
2024/01/05 10:44:46;;;;;;;0.73;0.73;;;;;;;14.79;75.55;99409.16;5091358;28;20253;-64
2024/01/05 10:47:14;;;;;;;0.70;0.70;;;;;;;14.88;75.02;99411.28;5095573;28;20435;-68
2024/01/05 10:49:45;;;;;;;0.60;0.60;;;;;;;14.98;74.49;99413.38;5100111;28;20228;-68
2024/01/05 10:52:13;;;;;;;3.60;0.80;;;;;;;15.01;71.26;99407.22;5099099;28;20299;-69
2024/01/05 10:54:42;;;;;;;1.07;1.07;;;;;;;15.00;70.78;99410.72;5093453;28;20203;-68
2024/01/05 10:57:10;;;;;;;0.50;0.50;;;;;;;15.04;70.68;99407.91;5087270;28;20238;-67
2024/01/05 10:59:37;;;;;;;0.60;0.60;;;;;;;15.00;71.70;99396.06;5099227;28;21285;-68
2024/01/05 11:02:11;;;;;;;0.60;0.60;;;;;;;15.00;70.59;99392.63;5093621;28;20199;-69
2024/01/05 11:04:42;;;;;;;0.93;0.50;;;;;;;15.10;71.65;99406.78;5092525;28;20226;-68
2024/01/05 11:07:09;;;;;;;0.77;0.77;;;;;;;15.09;70.31;99402.50;5093386;28;20259;-68
2024/01/05 11:09:49;;;;;;;0.90;0.80;;;;;;;15.06;70.96;99389.75;5098644;28;20260;-68
2024/01/05 11:12:27;;;;;;;0.60;0.60;;;;;;;15.03;72.55;99392.47;5093125;28;20218;-68
2024/01/05 11:15:10;;;;;;;0.50;0.50;;;;;;;15.08;75.10;99387.94;5103498;28;20640;-68
2024/01/05 11:18:06;;;;;;;1.40;0.77;;;;;;;15.07;75.67;99389.69;5094473;28;20659;-68
2024/01/05 11:20:49;;;;;;;0.60;0.60;;;;;;;15.10;78.48;99380.94;5096841;28;20671;-68
2024/01/05 11:23:17;;;;;;;0.77;0.77;;;;;;;14.94;78.63;99364.53;5103841;28;20263;-68
2024/01/05 11:25:45;;;;;;;2.83;1.10;;;;;;;15.09;78.59;99392.19;5093995;28;20199;-68
2024/01/05 11:28:32;;;;;;;0.87;0.87;;;;;;;15.10;78.48;99383.53;5093037;28;20203;-68
2024/01/05 11:30:59;;;;;;;2.63;1.27;;;;;;;15.13;78.25;99380.81;5101070;28;20347;-68
2024/01/05 11:33:45;;;;;;;1.23;1.03;;;;;;;15.17;76.87;99382.34;5103438;28;20268;-68
2024/01/05 11:36:13;;;;;;;0.70;0.70;;;;;;;15.16;75.50;99380.66;5100640;28;20682;-68